• Join FlightAware (Why Join?)
  • Login
  • US Flag 
01:35AM EST


 

Airport Tracker/Info


-or-


 

Live Flight TrackerFlight Track Log ✈ UAL6073 ✈ 19-Dec-2013 ✈ KBIS - KDEN

Flight Track Log - Related Links

Times and Time Zones

All times are in EST time to prevent confusion due to time zone crossing. See the UAL6073 flight status page for this flight to view local times or setup timezone preferences in your user account.

Time Position Orientation Groundspeed Altitude Reporting Facility
EST Latitude Longitude Course Direction KTS MPH feet Rate Location/Type
07:35AM 46.8122 -100.8869 201° Southwest 251 289 5,700  Level Minneapolis Center
07:36AM 46.7436 -100.9258 201° Southwest 262 302 8,700 2,520 Climbing Minneapolis Center
07:37AM 46.3874 -100.9923 199° South  Level Estimated
07:37AM 46.6756 -100.9617 200° South 264 304 10,900  Level Minneapolis Center
07:38AM 46.2910 -101.0534 201° Southwest  Level Estimated
07:38AM 46.5972 -101.0011 199° South 284 327 13,000  Level Minneapolis Center
07:39AM 46.1948 -101.0986 198° South  Level FlightAware Approximate
07:39AM 46.5153 -101.0394 198° South 304 350 14,400  Level Minneapolis Center
07:40AM 46.0984 -101.1595 201° Southwest  Level Estimated
07:40AM 46.4289 -101.0850 200° South 323 372 15,800  Level Minneapolis Center
07:41AM 46.3386 -101.1297 199° South 337 388 17,400 1,680 Climbing Minneapolis Center
07:42AM 46.2486 -101.1728 198° South 341 392 19,300 1,920 Climbing Minneapolis Center
07:43AM 46.1633 -101.2161 199° South 334 384 21,400 1,860 Climbing Minneapolis Center
07:44AM 46.0817 -101.2558 199° South 321 369 23,100 1,560 Climbing Minneapolis Center
07:45AM 45.9989 -101.2942 198° South 315 362 24,600 1,620 Climbing Minneapolis Center
07:46AM 45.8978 -101.3436 199° South 318 366 26,500 1,680 Climbing Minneapolis Center
07:47AM 45.8144 -101.3831 198° South 319 367 28,000 1,500 Climbing Minneapolis Center
07:48AM 45.7319 -101.4231 199° South 316 364 29,600 1,560 Climbing Minneapolis Center
07:49AM 45.6528 -101.4611 199° South 310 357 31,200 1,620 Climbing Minneapolis Center
07:50AM 45.5772 -101.4981 199° South 298 343 32,900 1,320 Climbing Minneapolis Center
07:51AM 45.5056 -101.5314 198° South 283 326 34,000 540 Climbing Minneapolis Center
07:52AM 45.4319 -101.5661 198° South 279 321 34,000  Level Minneapolis Center
07:53AM 45.3478 -101.6053 198° South 301 346 34,000  Level Minneapolis Center
07:54AM 45.2572 -101.6494 199° South 330 380 34,000  Level Minneapolis Center
07:55AM 45.1617 -101.6933 198° South 350 403 34,000  Level Minneapolis Center
07:56AM 45.0636 -101.7397 198° South 365 420 34,000  Level Minneapolis Center
07:57AM 44.9656 -101.7856 198° South 371 427 34,000  Level Minneapolis Center
07:58AM 44.8503 -101.8394 198° South 367 422 34,000  Level Minneapolis Center
07:59AM 44.7536 -101.8842 198° South 366 421 34,000  Level Minneapolis Center
08:00AM 44.6553 -101.9292 198° South 370 426 34,000  Level Minneapolis Center
08:01AM 44.5947 -101.9550 197° South 373 429 34,000  Level Denver Center
08:02AM 44.4958 -102.0006 198° South 375 432 34,000  Level Denver Center
08:03AM 44.3772 -102.0556 198° South 376 433 34,000  Level Denver Center
08:04AM 44.2750 -102.0989 197° South 381 438 34,000  Level Denver Center
08:05AM 44.1536 -102.1531 198° South 383 441 34,000  Level Denver Center
08:06AM 44.0506 -102.1961 197° South 385 443 34,000  Level Denver Center
08:07AM 43.9489 -102.2403 197° South 385 443 34,000  Level Denver Center
08:08AM 43.8569 -102.2833 199° South 381 438 34,000  Level Denver Center
08:09AM 43.7594 -102.3253 197° South 382 440 34,000  Level Denver Center
08:10AM 43.6467 -102.3750 198° South 383 441 34,000  Level Denver Center
08:11AM 43.5494 -102.4172 197° South 383 441 34,000  Level Denver Center
08:12AM 43.4500 -102.4594 197° South 389 448 34,000  Level Denver Center
08:13AM 43.3361 -102.5083 197° South 382 440 34,000  Level Denver Center
08:14AM 43.2394 -102.5511 198° South 382 440 34,000  Level Denver Center
08:15AM 43.1414 -102.5922 197° South 383 441 34,000  Level Denver Center
08:16AM 43.0431 -102.6328 197° South 385 443 34,000  Level Denver Center
08:17AM 42.9308 -102.6803 197° South 379 436 34,000  Level Denver Center
08:18AM 42.8350 -102.7231 198° South 379 436 34,000  Level Denver Center
08:19AM 42.7386 -102.7639 197° South 378 435 34,000  Level Denver Center
08:20AM 42.6261 -102.8119 197° South 379 436 34,000  Level Denver Center
08:21AM 42.5281 -102.8517 197° South 383 441 34,000  Level Denver Center
08:22AM 42.4319 -102.8933 198° South 380 437 34,000  Level Denver Center
08:23AM 42.3169 -102.9417 197° South 386 444 34,000  Level Denver Center
08:24AM 42.2197 -102.9819 197° South 381 438 34,000  Level Denver Center
08:25AM 42.1225 -103.0214 197° South 380 437 34,000  Level Denver Center
08:26AM 42.0233 -103.0628 197° South 385 443 34,000  Level Denver Center
08:27AM 41.9119 -103.1083 197° South 375 432 34,000  Level Denver Center
08:28AM 41.8119 -103.1500 197° South 388 447 34,000  Level Denver Center
08:29AM 41.7142 -103.1900 197° South 385 443 34,000 -960 Level Denver Center
08:30AM 41.5975 -103.2361 196° South 387 445 32,100 -1,020 Descending Denver Center
08:31AM 41.4981 -103.2783 198° South 388 447 32,000 -60 Descending Denver Center
08:32AM 41.4000 -103.3169 196° South 384 442 32,000  Level Denver Center
08:33AM 41.2861 -103.3619 197° South 382 440 32,000  Level Denver Center
08:34AM 41.1892 -103.4014 197° South 380 437 32,000  Level Denver Center
08:35AM 41.0894 -103.4411 197° South 386 444 32,000  Level Denver Center
08:36AM 40.9733 -103.4869 197° South 387 445 32,000 -540 Level Denver Center
08:37AM 40.8517 -103.5433 199° South 386 444 30,800 -1,500 Descending Denver Center
08:38AM 40.7531 -103.5942 201° Southwest 381 438 28,800 -2,040 Descending Denver Center
08:39AM 40.6567 -103.6431 201° Southwest 373 429 26,700 -2,160 Descending Denver Center
08:41AM 40.5717 -103.7086 210° Southwest 356 410 24,500 -1,980 Descending Denver Center
08:42AM 40.5072 -103.7989 227° Southwest 339 390 22,700 -1,740 Descending Denver Center
08:43AM 40.4428 -103.8869 226° Southwest 332 382 21,000 -1,620 Descending Denver Center
08:44AM 40.3842 -103.9669 226° Southwest 302 348 19,500 -1,740 Descending Denver Center
08:45AM 40.3561 -104.0703 250° West 287 330 17,600 -1,500 Descending Denver Center
08:46AM 40.3556 -104.1614 270° West 254 292 16,500 -1,140 Descending Denver Center
08:47AM 40.3544 -104.2414 269° West 226 260 15,400 -1,260 Descending Denver Center
08:48AM 40.3528 -104.3206 268° West 220 253 14,000 -1,200 Descending Denver Center
08:49AM 40.3339 -104.4019 253° West 231 266 13,000 -1,260 Descending Denver Center
08:50AM 40.3128 -104.4772 250° West 229 264 11,500 -1,500 Descending Denver Center
08:51AM 40.2908 -104.5606 251° West 226 260 10,000 -780 Descending Denver Center
08:52AM 40.2514 -104.6233 231° Southwest 225 259 10,000  Level Denver Center
08:53AM 40.2039 -104.6753 220° Southwest 230 265 10,000 -60 Level Denver Center
08:54AM 40.1361 -104.6850 186° South 245 282 9,900 -660 Descending Denver Center
08:55AM 40.0728 -104.6842 179° South 228 262 8,700 -1,140 Descending Denver Center
08:56AM 40.0172 -104.6853 181° South 188 216 7,700 -900 Descending Denver Center
08:57AM 39.9753 -104.6858 181° South 156 180 6,900 -840 Descending Denver Center
08:58AM 39.9336 -104.6861 180° South 151 174 6,100 -840 Descending Denver Center
08:59AM 39.8903 -104.6869 181° South 154 177 5,300 -840 Descending Denver Center